sensor_id;sensor_type;location;lat;lon;timestamp;P1;durP1;ratioP1;P2;durP2;ratioP2
19036;SDS011;9651;49.138;8.900;2023-03-21T00:03:38;4.03;;;3.03;;
19036;SDS011;9651;49.138;8.900;2023-03-21T00:07:42;3.57;;;3.03;;
19036;SDS011;9651;49.138;8.900;2023-03-21T00:11:44;3.70;;;2.70;;
19036;SDS011;9651;49.138;8.900;2023-03-21T00:15:47;3.57;;;3.27;;
19036;SDS011;9651;49.138;8.900;2023-03-21T00:19:53;4.47;;;3.53;;
19036;SDS011;9651;49.138;8.900;2023-03-21T00:23:55;3.77;;;3.00;;
19036;SDS011;9651;49.138;8.900;2023-03-21T00:27:57;3.90;;;3.30;;
19036;SDS011;9651;49.138;8.900;2023-03-21T00:32:01;4.47;;;3.43;;
19036;SDS011;9651;49.138;8.900;2023-03-21T00:36:03;4.80;;;3.50;;
19036;SDS011;9651;49.138;8.900;2023-03-21T00:40:07;4.27;;;3.30;;
19036;SDS011;9651;49.138;8.900;2023-03-21T00:44:10;4.47;;;2.87;;
19036;SDS011;9651;49.138;8.900;2023-03-21T00:48:16;5.33;;;3.13;;
19036;SDS011;9651;49.138;8.900;2023-03-21T00:52:18;6.47;;;2.70;;
19036;SDS011;9651;49.138;8.900;2023-03-21T00:56:20;4.47;;;2.30;;
19036;SDS011;9651;49.138;8.900;2023-03-21T01:00:23;4.13;;;2.70;;
19036;SDS011;9651;49.138;8.900;2023-03-21T01:04:27;5.20;;;2.67;;
19036;SDS011;9651;49.138;8.900;2023-03-21T01:08:29;4.90;;;2.37;;
19036;SDS011;9651;49.138;8.900;2023-03-21T01:12:32;4.33;;;3.10;;
19036;SDS011;9651;49.138;8.900;2023-03-21T01:16:37;9.00;;;2.70;;
19036;SDS011;9651;49.138;8.900;2023-03-21T01:20:40;5.57;;;2.60;;
19036;SDS011;9651;49.138;8.900;2023-03-21T01:24:43;5.73;;;3.97;;
19036;SDS011;9651;49.138;8.900;2023-03-21T01:28:45;5.93;;;4.00;;
19036;SDS011;9651;49.138;8.900;2023-03-21T01:32:47;5.53;;;3.97;;
19036;SDS011;9651;49.138;8.900;2023-03-21T01:36:50;5.50;;;4.87;;
19036;SDS011;9651;49.138;8.900;2023-03-21T01:40:54;6.17;;;4.40;;
19036;SDS011;9651;49.138;8.900;2023-03-21T01:45:01;4.47;;;3.87;;
19036;SDS011;9651;49.138;8.900;2023-03-21T01:49:17;3.97;;;3.17;;
19036;SDS011;9651;49.138;8.900;2023-03-21T01:53:30;4.10;;;3.57;;
19036;SDS011;9651;49.138;8.900;2023-03-21T01:57:40;10.60;;;3.80;;
19036;SDS011;9651;49.138;8.900;2023-03-21T02:01:47;4.80;;;3.30;;
19036;SDS011;9651;49.138;8.900;2023-03-21T02:05:57;6.90;;;3.50;;
19036;SDS011;9651;49.138;8.900;2023-03-21T02:10:07;7.00;;;4.13;;
19036;SDS011;9651;49.138;8.900;2023-03-21T02:14:14;10.60;;;3.67;;
19036;SDS011;9651;49.138;8.900;2023-03-21T02:18:34;4.30;;;3.50;;
19036;SDS011;9651;49.138;8.900;2023-03-21T02:27:43;7.20;;;3.40;;
19036;SDS011;9651;49.138;8.900;2023-03-21T02:31:51;4.83;;;3.17;;
19036;SDS011;9651;49.138;8.900;2023-03-21T02:36:09;4.87;;;3.47;;
19036;SDS011;9651;49.138;8.900;2023-03-21T02:40:29;5.27;;;3.70;;
19036;SDS011;9651;49.138;8.900;2023-03-21T02:44:38;6.80;;;4.50;;
19036;SDS011;9651;49.138;8.900;2023-03-21T02:48:46;5.43;;;4.40;;
19036;SDS011;9651;49.138;8.900;2023-03-21T02:52:53;5.97;;;4.30;;
19036;SDS011;9651;49.138;8.900;2023-03-21T02:56:58;6.83;;;4.30;;
19036;SDS011;9651;49.138;8.900;2023-03-21T03:01:03;6.30;;;4.87;;
19036;SDS011;9651;49.138;8.900;2023-03-21T03:05:14;5.77;;;4.20;;
19036;SDS011;9651;49.138;8.900;2023-03-21T03:09:20;6.13;;;4.37;;
19036;SDS011;9651;49.138;8.900;2023-03-21T03:13:34;7.57;;;4.83;;
19036;SDS011;9651;49.138;8.900;2023-03-21T03:17:49;8.30;;;4.03;;
19036;SDS011;9651;49.138;8.900;2023-03-21T03:21:55;6.67;;;4.23;;
19036;SDS011;9651;49.138;8.900;2023-03-21T03:26:01;5.90;;;4.33;;
19036;SDS011;9651;49.138;8.900;2023-03-21T03:30:11;5.27;;;3.80;;
19036;SDS011;9651;49.138;8.900;2023-03-21T03:34:15;8.27;;;4.07;;
19036;SDS011;9651;49.138;8.900;2023-03-21T03:38:21;9.77;;;5.90;;
19036;SDS011;9651;49.138;8.900;2023-03-21T03:42:27;7.00;;;4.33;;
19036;SDS011;9651;49.138;8.900;2023-03-21T03:46:42;8.43;;;4.53;;
19036;SDS011;9651;49.138;8.900;2023-03-21T03:50:51;6.60;;;4.30;;
19036;SDS011;9651;49.138;8.900;2023-03-21T03:55:08;6.87;;;4.40;;
19036;SDS011;9651;49.138;8.900;2023-03-21T03:59:16;5.63;;;4.57;;
19036;SDS011;9651;49.138;8.900;2023-03-21T04:03:43;8.07;;;4.27;;
19036;SDS011;9651;49.138;8.900;2023-03-21T04:07:48;5.97;;;4.50;;
19036;SDS011;9651;49.138;8.900;2023-03-21T04:11:51;6.03;;;4.10;;
19036;SDS011;9651;49.138;8.900;2023-03-21T04:15:53;6.00;;;4.23;;
19036;SDS011;9651;49.138;8.900;2023-03-21T04:19:57;10.30;;;4.23;;
19036;SDS011;9651;49.138;8.900;2023-03-21T04:23:59;5.63;;;4.03;;
19036;SDS011;9651;49.138;8.900;2023-03-21T04:28:02;5.63;;;4.37;;
19036;SDS011;9651;49.138;8.900;2023-03-21T04:32:12;5.23;;;4.00;;
19036;SDS011;9651;49.138;8.900;2023-03-21T04:36:21;6.00;;;4.17;;
19036;SDS011;9651;49.138;8.900;2023-03-21T04:40:29;6.53;;;3.70;;
19036;SDS011;9651;49.138;8.900;2023-03-21T04:44:31;10.70;;;4.33;;
19036;SDS011;9651;49.138;8.900;2023-03-21T04:48:33;8.43;;;4.57;;
19036;SDS011;9651;49.138;8.900;2023-03-21T04:52:37;6.43;;;4.00;;
19036;SDS011;9651;49.138;8.900;2023-03-21T04:56:39;5.50;;;3.63;;
19036;SDS011;9651;49.138;8.900;2023-03-21T05:00:41;7.57;;;3.77;;
19036;SDS011;9651;49.138;8.900;2023-03-21T05:04:43;6.60;;;4.20;;
19036;SDS011;9651;49.138;8.900;2023-03-21T05:08:47;8.07;;;4.00;;
19036;SDS011;9651;49.138;8.900;2023-03-21T05:12:49;5.83;;;3.23;;
19036;SDS011;9651;49.138;8.900;2023-03-21T05:16:51;6.00;;;3.80;;
19036;SDS011;9651;49.138;8.900;2023-03-21T05:20:55;7.03;;;4.10;;
19036;SDS011;9651;49.138;8.900;2023-03-21T05:24:59;5.33;;;3.83;;
19036;SDS011;9651;49.138;8.900;2023-03-21T05:29:14;5.87;;;4.10;;
19036;SDS011;9651;49.138;8.900;2023-03-21T05:33:18;6.07;;;4.20;;
19036;SDS011;9651;49.138;8.900;2023-03-21T05:37:20;6.20;;;3.87;;
19036;SDS011;9651;49.138;8.900;2023-03-21T05:41:25;6.80;;;4.50;;
19036;SDS011;9651;49.138;8.900;2023-03-21T05:45:27;8.77;;;4.53;;
19036;SDS011;9651;49.138;8.900;2023-03-21T05:49:30;6.67;;;4.70;;
19036;SDS011;9651;49.138;8.900;2023-03-21T05:53:35;8.80;;;4.43;;
19036;SDS011;9651;49.138;8.900;2023-03-21T05:57:38;10.90;;;4.10;;
19036;SDS011;9651;49.138;8.900;2023-03-21T06:01:44;5.90;;;4.33;;
19036;SDS011;9651;49.138;8.900;2023-03-21T06:05:49;5.90;;;4.20;;
19036;SDS011;9651;49.138;8.900;2023-03-21T06:09:56;6.20;;;4.83;;
19036;SDS011;9651;49.138;8.900;2023-03-21T06:13:59;6.17;;;4.40;;
19036;SDS011;9651;49.138;8.900;2023-03-21T06:18:01;8.00;;;4.97;;
19036;SDS011;9651;49.138;8.900;2023-03-21T06:22:03;8.47;;;5.93;;
19036;SDS011;9651;49.138;8.900;2023-03-21T06:26:07;7.23;;;5.20;;
19036;SDS011;9651;49.138;8.900;2023-03-21T06:30:12;23.57;;;12.80;;
19036;SDS011;9651;49.138;8.900;2023-03-21T06:34:27;29.03;;;14.90;;
19036;SDS011;9651;49.138;8.900;2023-03-21T06:38:29;23.30;;;11.90;;
19036;SDS011;9651;49.138;8.900;2023-03-21T06:42:31;18.53;;;12.13;;
19036;SDS011;9651;49.138;8.900;2023-03-21T06:46:41;11.60;;;8.37;;
19036;SDS011;9651;49.138;8.900;2023-03-21T06:50:43;12.77;;;8.13;;
19036;SDS011;9651;49.138;8.900;2023-03-21T06:54:48;15.87;;;11.60;;
19036;SDS011;9651;49.138;8.900;2023-03-21T06:58:51;8.37;;;6.23;;
19036;SDS011;9651;49.138;8.900;2023-03-21T07:03:21;8.80;;;5.87;;
19036;SDS011;9651;49.138;8.900;2023-03-21T07:07:24;11.47;;;7.00;;
19036;SDS011;9651;49.138;8.900;2023-03-21T07:11:28;10.90;;;6.97;;
19036;SDS011;9651;49.138;8.900;2023-03-21T07:15:31;8.23;;;5.87;;
19036;SDS011;9651;49.138;8.900;2023-03-21T07:19:38;9.73;;;5.37;;
19036;SDS011;9651;49.138;8.900;2023-03-21T07:23:40;8.63;;;4.30;;
19036;SDS011;9651;49.138;8.900;2023-03-21T07:27:43;6.22;;;4.90;;
19036;SDS011;9651;49.138;8.900;2023-03-21T07:31:45;12.13;;;4.77;;
19036;SDS011;9651;49.138;8.900;2023-03-21T07:35:49;14.20;;;6.57;;
19036;SDS011;9651;49.138;8.900;2023-03-21T07:39:51;10.68;;;4.97;;
19036;SDS011;9651;49.138;8.900;2023-03-21T07:43:54;10.88;;;4.90;;
19036;SDS011;9651;49.138;8.900;2023-03-21T07:48:04;8.40;;;4.88;;
19036;SDS011;9651;49.138;8.900;2023-03-21T07:52:08;12.82;;;4.90;;
19036;SDS011;9651;49.138;8.900;2023-03-21T07:56:10;8.02;;;4.55;;
19036;SDS011;9651;49.138;8.900;2023-03-21T08:00:13;6.85;;;4.50;;
19036;SDS011;9651;49.138;8.900;2023-03-21T08:04:21;3.95;;;2.78;;
19036;SDS011;9651;49.138;8.900;2023-03-21T08:08:25;5.47;;;3.05;;
19036;SDS011;9651;49.138;8.900;2023-03-21T08:12:27;3.85;;;2.53;;
19036;SDS011;9651;49.138;8.900;2023-03-21T08:16:29;3.72;;;2.55;;
19036;SDS011;9651;49.138;8.900;2023-03-21T08:20:31;4.30;;;2.55;;
19036;SDS011;9651;49.138;8.900;2023-03-21T08:24:35;6.00;;;2.50;;
19036;SDS011;9651;49.138;8.900;2023-03-21T08:28:36;3.50;;;2.30;;
19036;SDS011;9651;49.138;8.900;2023-03-21T08:32:40;5.22;;;2.60;;
19036;SDS011;9651;49.138;8.900;2023-03-21T08:36:42;4.65;;;2.50;;
19036;SDS011;9651;49.138;8.900;2023-03-21T08:40:47;4.63;;;2.60;;
19036;SDS011;9651;49.138;8.900;2023-03-21T08:44:50;3.20;;;2.80;;
19036;SDS011;9651;49.138;8.900;2023-03-21T08:48:52;3.72;;;2.42;;
19036;SDS011;9651;49.138;8.900;2023-03-21T08:52:54;3.08;;;2.47;;
19036;SDS011;9651;49.138;8.900;2023-03-21T08:56:57;3.90;;;2.85;;
19036;SDS011;9651;49.138;8.900;2023-03-21T09:01:00;4.10;;;2.13;;
19036;SDS011;9651;49.138;8.900;2023-03-21T09:05:02;4.00;;;2.53;;
19036;SDS011;9651;49.138;8.900;2023-03-21T09:09:05;3.35;;;2.03;;
19036;SDS011;9651;49.138;8.900;2023-03-21T09:13:09;5.25;;;2.17;;
19036;SDS011;9651;49.138;8.900;2023-03-21T09:17:11;3.50;;;2.00;;
19036;SDS011;9651;49.138;8.900;2023-03-21T09:21:13;4.45;;;2.38;;
19036;SDS011;9651;49.138;8.900;2023-03-21T09:25:17;3.38;;;2.00;;
19036;SDS011;9651;49.138;8.900;2023-03-21T09:29:21;4.82;;;2.42;;
19036;SDS011;9651;49.138;8.900;2023-03-21T09:33:24;6.15;;;2.15;;
19036;SDS011;9651;49.138;8.900;2023-03-21T09:37:27;4.45;;;2.10;;
19036;SDS011;9651;49.138;8.900;2023-03-21T09:41:36;3.45;;;2.20;;
19036;SDS011;9651;49.138;8.900;2023-03-21T09:45:48;6.35;;;2.08;;
19036;SDS011;9651;49.138;8.900;2023-03-21T09:49:55;6.45;;;2.35;;
19036;SDS011;9651;49.138;8.900;2023-03-21T09:54:01;3.83;;;1.83;;
19036;SDS011;9651;49.138;8.900;2023-03-21T10:02:34;6.57;;;2.33;;
19036;SDS011;9651;49.138;8.900;2023-03-21T10:06:39;3.58;;;2.05;;
19036;SDS011;9651;49.138;8.900;2023-03-21T10:10:43;2.60;;;1.50;;
19036;SDS011;9651;49.138;8.900;2023-03-21T10:14:47;2.58;;;1.77;;
19036;SDS011;9651;49.138;8.900;2023-03-21T10:18:53;5.30;;;2.13;;
19036;SDS011;9651;49.138;8.900;2023-03-21T10:22:56;2.90;;;1.88;;
19036;SDS011;9651;49.138;8.900;2023-03-21T10:27:00;5.20;;;1.60;;
19036;SDS011;9651;49.138;8.900;2023-03-21T10:31:04;2.92;;;1.90;;
19036;SDS011;9651;49.138;8.900;2023-03-21T10:35:12;2.70;;;1.95;;
19036;SDS011;9651;49.138;8.900;2023-03-21T10:39:18;2.80;;;2.00;;
19036;SDS011;9651;49.138;8.900;2023-03-21T10:43:31;2.15;;;1.80;;
19036;SDS011;9651;49.138;8.900;2023-03-21T10:47:36;3.50;;;1.80;;
19036;SDS011;9651;49.138;8.900;2023-03-21T10:51:40;2.67;;;1.85;;
19036;SDS011;9651;49.138;8.900;2023-03-21T10:55:42;4.28;;;1.60;;
19036;SDS011;9651;49.138;8.900;2023-03-21T10:59:49;2.13;;;1.58;;
19036;SDS011;9651;49.138;8.900;2023-03-21T11:03:54;4.00;;;1.67;;
19036;SDS011;9651;49.138;8.900;2023-03-21T11:08:00;5.00;;;1.95;;
19036;SDS011;9651;49.138;8.900;2023-03-21T11:12:08;2.08;;;1.38;;
19036;SDS011;9651;49.138;8.900;2023-03-21T11:16:17;3.90;;;1.70;;
19036;SDS011;9651;49.138;8.900;2023-03-21T11:20:23;2.13;;;1.45;;
19036;SDS011;9651;49.138;8.900;2023-03-21T11:24:30;2.78;;;1.60;;
19036;SDS011;9651;49.138;8.900;2023-03-21T11:28:35;4.18;;;1.63;;
19036;SDS011;9651;49.138;8.900;2023-03-21T11:32:38;3.28;;;1.75;;
19036;SDS011;9651;49.138;8.900;2023-03-21T11:36:42;2.80;;;1.73;;
19036;SDS011;9651;49.138;8.900;2023-03-21T11:40:52;5.28;;;1.90;;
19036;SDS011;9651;49.138;8.900;2023-03-21T11:45:02;3.75;;;1.88;;
19036;SDS011;9651;49.138;8.900;2023-03-21T11:49:11;3.88;;;2.22;;
19036;SDS011;9651;49.138;8.900;2023-03-21T11:53:19;10.88;;;4.78;;
19036;SDS011;9651;49.138;8.900;2023-03-21T11:57:30;3.92;;;2.63;;
19036;SDS011;9651;49.138;8.900;2023-03-21T12:01:40;4.68;;;2.20;;
19036;SDS011;9651;49.138;8.900;2023-03-21T12:05:57;3.10;;;1.63;;
19036;SDS011;9651;49.138;8.900;2023-03-21T12:10:09;2.60;;;2.15;;
19036;SDS011;9651;49.138;8.900;2023-03-21T12:14:25;2.22;;;1.70;;
19036;SDS011;9651;49.138;8.900;2023-03-21T12:18:41;2.55;;;1.75;;
19036;SDS011;9651;49.138;8.900;2023-03-21T12:23:03;2.75;;;1.90;;
19036;SDS011;9651;49.138;8.900;2023-03-21T12:27:31;1.83;;;1.73;;
19036;SDS011;9651;49.138;8.900;2023-03-21T12:31:45;3.45;;;1.83;;
19036;SDS011;9651;49.138;8.900;2023-03-21T12:36:00;4.28;;;2.40;;
19036;SDS011;9651;49.138;8.900;2023-03-21T12:40:14;2.97;;;2.67;;
19036;SDS011;9651;49.138;8.900;2023-03-21T12:44:22;3.67;;;1.83;;
19036;SDS011;9651;49.138;8.900;2023-03-21T12:48:32;3.80;;;2.53;;
19036;SDS011;9651;49.138;8.900;2023-03-21T12:52:40;2.42;;;2.00;;
19036;SDS011;9651;49.138;8.900;2023-03-21T12:56:46;3.78;;;1.52;;
19036;SDS011;9651;49.138;8.900;2023-03-21T13:00:53;4.03;;;1.98;;
19036;SDS011;9651;49.138;8.900;2023-03-21T13:05:00;4.05;;;1.90;;
19036;SDS011;9651;49.138;8.900;2023-03-21T13:09:09;2.58;;;1.90;;
19036;SDS011;9651;49.138;8.900;2023-03-21T13:13:17;4.10;;;1.83;;
19036;SDS011;9651;49.138;8.900;2023-03-21T13:17:26;3.53;;;2.33;;
19036;SDS011;9651;49.138;8.900;2023-03-21T13:21:45;3.30;;;1.40;;
19036;SDS011;9651;49.138;8.900;2023-03-21T13:25:51;2.25;;;1.50;;
19036;SDS011;9651;49.138;8.900;2023-03-21T13:29:57;2.13;;;1.50;;
19036;SDS011;9651;49.138;8.900;2023-03-21T13:34:01;2.28;;;1.70;;
19036;SDS011;9651;49.138;8.900;2023-03-21T13:38:05;10.43;;;1.88;;
19036;SDS011;9651;49.138;8.900;2023-03-21T13:42:16;8.02;;;2.20;;
19036;SDS011;9651;49.138;8.900;2023-03-21T13:50:52;2.72;;;2.33;;
19036;SDS011;9651;49.138;8.900;2023-03-21T13:55:01;6.50;;;2.28;;
19036;SDS011;9651;49.138;8.900;2023-03-21T13:59:04;6.80;;;2.22;;
19036;SDS011;9651;49.138;8.900;2023-03-21T14:03:12;5.50;;;2.35;;
19036;SDS011;9651;49.138;8.900;2023-03-21T14:07:18;3.50;;;2.50;;
19036;SDS011;9651;49.138;8.900;2023-03-21T14:11:26;3.47;;;2.00;;
19036;SDS011;9651;49.138;8.900;2023-03-21T14:15:32;6.13;;;2.15;;
19036;SDS011;9651;49.138;8.900;2023-03-21T14:19:38;3.45;;;2.05;;
19036;SDS011;9651;49.138;8.900;2023-03-21T14:23:40;4.45;;;2.45;;
19036;SDS011;9651;49.138;8.900;2023-03-21T14:27:44;3.30;;;2.55;;
19036;SDS011;9651;49.138;8.900;2023-03-21T14:31:49;6.65;;;2.08;;
19036;SDS011;9651;49.138;8.900;2023-03-21T14:35:51;4.75;;;2.25;;
19036;SDS011;9651;49.138;8.900;2023-03-21T14:39:57;4.93;;;1.75;;
19036;SDS011;9651;49.138;8.900;2023-03-21T14:44:07;2.55;;;1.95;;
19036;SDS011;9651;49.138;8.900;2023-03-21T14:48:14;3.15;;;2.00;;
19036;SDS011;9651;49.138;8.900;2023-03-21T14:52:18;7.07;;;1.90;;
19036;SDS011;9651;49.138;8.900;2023-03-21T14:56:23;2.22;;;2.03;;
19036;SDS011;9651;49.138;8.900;2023-03-21T15:00:28;3.20;;;2.40;;
19036;SDS011;9651;49.138;8.900;2023-03-21T15:04:31;2.47;;;1.88;;
19036;SDS011;9651;49.138;8.900;2023-03-21T15:08:33;3.00;;;1.90;;
19036;SDS011;9651;49.138;8.900;2023-03-21T15:12:35;4.38;;;2.60;;
19036;SDS011;9651;49.138;8.900;2023-03-21T15:16:38;2.72;;;2.08;;
19036;SDS011;9651;49.138;8.900;2023-03-21T15:20:41;8.13;;;2.28;;
19036;SDS011;9651;49.138;8.900;2023-03-21T15:24:47;22.65;;;5.13;;
19036;SDS011;9651;49.138;8.900;2023-03-21T15:28:54;15.70;;;3.70;;
19036;SDS011;9651;49.138;8.900;2023-03-21T15:33:04;2.58;;;2.20;;
19036;SDS011;9651;49.138;8.900;2023-03-21T15:37:08;8.25;;;2.25;;
19036;SDS011;9651;49.138;8.900;2023-03-21T15:41:27;5.07;;;2.63;;
19036;SDS011;9651;49.138;8.900;2023-03-21T15:45:30;4.82;;;2.30;;
19036;SDS011;9651;49.138;8.900;2023-03-21T15:49:36;7.60;;;2.80;;
19036;SDS011;9651;49.138;8.900;2023-03-21T15:53:40;3.70;;;2.28;;
19036;SDS011;9651;49.138;8.900;2023-03-21T15:57:44;3.47;;;2.53;;
19036;SDS011;9651;49.138;8.900;2023-03-21T16:01:49;4.45;;;2.55;;
19036;SDS011;9651;49.138;8.900;2023-03-21T16:06:02;2.65;;;1.92;;
19036;SDS011;9651;49.138;8.900;2023-03-21T16:10:06;2.35;;;1.75;;
19036;SDS011;9651;49.138;8.900;2023-03-21T16:14:26;4.15;;;2.13;;
19036;SDS011;9651;49.138;8.900;2023-03-21T16:18:28;4.85;;;2.50;;
19036;SDS011;9651;49.138;8.900;2023-03-21T16:22:32;3.03;;;2.33;;
19036;SDS011;9651;49.138;8.900;2023-03-21T16:26:35;2.85;;;2.30;;
19036;SDS011;9651;49.138;8.900;2023-03-21T16:30:39;3.63;;;2.28;;
19036;SDS011;9651;49.138;8.900;2023-03-21T16:34:41;3.70;;;2.50;;
19036;SDS011;9651;49.138;8.900;2023-03-21T16:38:47;6.35;;;2.50;;
19036;SDS011;9651;49.138;8.900;2023-03-21T16:42:51;3.00;;;2.30;;
19036;SDS011;9651;49.138;8.900;2023-03-21T16:46:53;4.30;;;2.20;;
19036;SDS011;9651;49.138;8.900;2023-03-21T16:50:55;2.47;;;1.95;;
19036;SDS011;9651;49.138;8.900;2023-03-21T16:54:58;4.55;;;2.10;;
19036;SDS011;9651;49.138;8.900;2023-03-21T16:59:00;3.00;;;2.53;;
19036;SDS011;9651;49.138;8.900;2023-03-21T17:03:07;8.50;;;3.72;;
19036;SDS011;9651;49.138;8.900;2023-03-21T17:07:14;4.80;;;2.55;;
19036;SDS011;9651;49.138;8.900;2023-03-21T17:11:18;6.22;;;2.80;;
19036;SDS011;9651;49.138;8.900;2023-03-21T17:15:22;4.53;;;2.30;;
19036;SDS011;9651;49.138;8.900;2023-03-21T17:19:24;4.50;;;2.70;;
19036;SDS011;9651;49.138;8.900;2023-03-21T17:23:27;3.30;;;2.53;;
19036;SDS011;9651;49.138;8.900;2023-03-21T17:27:30;6.88;;;2.92;;
19036;SDS011;9651;49.138;8.900;2023-03-21T17:31:33;6.25;;;3.42;;
19036;SDS011;9651;49.138;8.900;2023-03-21T17:35:36;4.43;;;2.53;;
19036;SDS011;9651;49.138;8.900;2023-03-21T17:39:38;3.90;;;2.45;;
19036;SDS011;9651;49.138;8.900;2023-03-21T17:43:43;7.07;;;3.38;;
19036;SDS011;9651;49.138;8.900;2023-03-21T17:47:45;7.07;;;3.17;;
19036;SDS011;9651;49.138;8.900;2023-03-21T17:51:47;7.45;;;3.83;;
19036;SDS011;9651;49.138;8.900;2023-03-21T17:55:51;5.23;;;3.40;;
19036;SDS011;9651;49.138;8.900;2023-03-21T17:59:54;8.97;;;4.00;;
19036;SDS011;9651;49.138;8.900;2023-03-21T18:03:56;5.40;;;3.90;;
19036;SDS011;9651;49.138;8.900;2023-03-21T18:08:01;7.13;;;4.32;;
19036;SDS011;9651;49.138;8.900;2023-03-21T18:12:03;9.10;;;4.43;;
19036;SDS011;9651;49.138;8.900;2023-03-21T18:16:07;8.13;;;4.03;;
19036;SDS011;9651;49.138;8.900;2023-03-21T18:20:12;5.20;;;3.50;;
19036;SDS011;9651;49.138;8.900;2023-03-21T18:24:16;6.50;;;3.80;;
19036;SDS011;9651;49.138;8.900;2023-03-21T18:28:18;5.83;;;4.43;;
19036;SDS011;9651;49.138;8.900;2023-03-21T18:32:21;6.83;;;5.00;;
19036;SDS011;9651;49.138;8.900;2023-03-21T18:36:25;11.90;;;6.77;;
19036;SDS011;9651;49.138;8.900;2023-03-21T18:40:27;11.30;;;5.77;;
19036;SDS011;9651;49.138;8.900;2023-03-21T18:44:29;7.73;;;4.90;;
19036;SDS011;9651;49.138;8.900;2023-03-21T18:48:39;6.10;;;3.80;;
19036;SDS011;9651;49.138;8.900;2023-03-21T18:52:41;8.23;;;4.93;;
19036;SDS011;9651;49.138;8.900;2023-03-21T18:56:43;5.77;;;2.93;;
19036;SDS011;9651;49.138;8.900;2023-03-21T19:00:49;4.70;;;2.53;;
19036;SDS011;9651;49.138;8.900;2023-03-21T19:04:53;5.37;;;3.47;;
19036;SDS011;9651;49.138;8.900;2023-03-21T19:08:56;3.73;;;3.07;;
19036;SDS011;9651;49.138;8.900;2023-03-21T19:12:58;2.80;;;2.40;;
19036;SDS011;9651;49.138;8.900;2023-03-21T19:17:01;3.27;;;2.33;;
19036;SDS011;9651;49.138;8.900;2023-03-21T19:21:04;4.10;;;2.47;;
19036;SDS011;9651;49.138;8.900;2023-03-21T19:25:07;3.50;;;2.40;;
19036;SDS011;9651;49.138;8.900;2023-03-21T19:29:10;3.07;;;2.40;;
19036;SDS011;9651;49.138;8.900;2023-03-21T19:33:13;6.47;;;2.67;;
19036;SDS011;9651;49.138;8.900;2023-03-21T19:37:17;5.80;;;2.70;;
19036;SDS011;9651;49.138;8.900;2023-03-21T19:41:19;4.23;;;2.80;;
19036;SDS011;9651;49.138;8.900;2023-03-21T19:45:21;4.50;;;3.60;;
19036;SDS011;9651;49.138;8.900;2023-03-21T19:49:23;6.37;;;3.73;;
19036;SDS011;9651;49.138;8.900;2023-03-21T19:53:26;6.53;;;4.00;;
19036;SDS011;9651;49.138;8.900;2023-03-21T19:57:28;4.80;;;4.10;;
19036;SDS011;9651;49.138;8.900;2023-03-21T20:01:30;5.73;;;4.67;;
19036;SDS011;9651;49.138;8.900;2023-03-21T20:05:32;6.10;;;4.17;;
19036;SDS011;9651;49.138;8.900;2023-03-21T20:09:37;7.47;;;4.33;;
19036;SDS011;9651;49.138;8.900;2023-03-21T20:13:39;5.73;;;3.20;;
19036;SDS011;9651;49.138;8.900;2023-03-21T20:17:41;4.50;;;3.33;;
19036;SDS011;9651;49.138;8.900;2023-03-21T20:21:43;13.10;;;4.10;;
19036;SDS011;9651;49.138;8.900;2023-03-21T20:25:46;4.23;;;3.33;;
19036;SDS011;9651;49.138;8.900;2023-03-21T20:29:48;7.43;;;4.47;;
19036;SDS011;9651;49.138;8.900;2023-03-21T20:33:50;11.63;;;8.03;;
19036;SDS011;9651;49.138;8.900;2023-03-21T20:37:52;6.23;;;4.67;;
19036;SDS011;9651;49.138;8.900;2023-03-21T20:41:56;7.30;;;5.27;;
19036;SDS011;9651;49.138;8.900;2023-03-21T20:45:59;8.53;;;4.53;;
19036;SDS011;9651;49.138;8.900;2023-03-21T20:50:02;7.37;;;4.07;;
19036;SDS011;9651;49.138;8.900;2023-03-21T20:54:05;6.83;;;3.73;;
19036;SDS011;9651;49.138;8.900;2023-03-21T20:58:09;5.03;;;3.87;;
19036;SDS011;9651;49.138;8.900;2023-03-21T21:02:12;5.87;;;3.90;;
19036;SDS011;9651;49.138;8.900;2023-03-21T21:06:15;7.47;;;5.23;;
19036;SDS011;9651;49.138;8.900;2023-03-21T21:10:18;6.17;;;4.37;;
19036;SDS011;9651;49.138;8.900;2023-03-21T21:14:22;7.87;;;4.20;;
19036;SDS011;9651;49.138;8.900;2023-03-21T21:18:24;8.13;;;4.70;;
19036;SDS011;9651;49.138;8.900;2023-03-21T21:22:27;5.93;;;4.40;;
19036;SDS011;9651;49.138;8.900;2023-03-21T21:26:29;6.87;;;4.80;;
19036;SDS011;9651;49.138;8.900;2023-03-21T21:30:32;7.80;;;4.70;;
19036;SDS011;9651;49.138;8.900;2023-03-21T21:34:37;9.93;;;4.83;;
19036;SDS011;9651;49.138;8.900;2023-03-21T21:38:39;6.77;;;4.53;;
19036;SDS011;9651;49.138;8.900;2023-03-21T21:42:41;6.20;;;4.77;;
19036;SDS011;9651;49.138;8.900;2023-03-21T21:46:45;7.67;;;4.63;;
19036;SDS011;9651;49.138;8.900;2023-03-21T21:50:47;7.83;;;4.47;;
19036;SDS011;9651;49.138;8.900;2023-03-21T21:54:51;5.23;;;4.00;;
19036;SDS011;9651;49.138;8.900;2023-03-21T21:58:53;6.30;;;4.17;;
19036;SDS011;9651;49.138;8.900;2023-03-21T22:02:56;6.70;;;4.23;;
19036;SDS011;9651;49.138;8.900;2023-03-21T22:06:59;9.37;;;4.63;;
19036;SDS011;9651;49.138;8.900;2023-03-21T22:11:02;7.10;;;4.33;;
19036;SDS011;9651;49.138;8.900;2023-03-21T22:15:05;8.87;;;4.30;;
19036;SDS011;9651;49.138;8.900;2023-03-21T22:19:09;5.23;;;4.00;;
19036;SDS011;9651;49.138;8.900;2023-03-21T22:23:11;5.50;;;3.97;;
19036;SDS011;9651;49.138;8.900;2023-03-21T22:27:13;7.97;;;3.90;;
19036;SDS011;9651;49.138;8.900;2023-03-21T22:31:15;7.23;;;5.00;;
19036;SDS011;9651;49.138;8.900;2023-03-21T22:35:19;7.17;;;4.83;;
19036;SDS011;9651;49.138;8.900;2023-03-21T22:39:21;7.83;;;5.13;;
19036;SDS011;9651;49.138;8.900;2023-03-21T22:43:25;6.50;;;4.63;;
19036;SDS011;9651;49.138;8.900;2023-03-21T22:47:27;9.23;;;5.10;;
19036;SDS011;9651;49.138;8.900;2023-03-21T22:51:31;5.97;;;4.23;;
19036;SDS011;9651;49.138;8.900;2023-03-21T22:55:32;6.33;;;4.77;;
19036;SDS011;9651;49.138;8.900;2023-03-21T22:59:34;5.47;;;4.73;;
19036;SDS011;9651;49.138;8.900;2023-03-21T23:03:36;7.13;;;5.03;;
19036;SDS011;9651;49.138;8.900;2023-03-21T23:07:39;5.50;;;4.50;;
19036;SDS011;9651;49.138;8.900;2023-03-21T23:11:41;6.93;;;4.97;;
19036;SDS011;9651;49.138;8.900;2023-03-21T23:15:45;6.57;;;4.93;;
19036;SDS011;9651;49.138;8.900;2023-03-21T23:19:47;7.57;;;4.90;;
19036;SDS011;9651;49.138;8.900;2023-03-21T23:23:50;5.33;;;4.83;;
19036;SDS011;9651;49.138;8.900;2023-03-21T23:27:52;6.43;;;5.23;;
19036;SDS011;9651;49.138;8.900;2023-03-21T23:31:55;7.90;;;5.73;;
19036;SDS011;9651;49.138;8.900;2023-03-21T23:35:57;7.67;;;5.73;;
19036;SDS011;9651;49.138;8.900;2023-03-21T23:40:00;7.77;;;5.53;;
19036;SDS011;9651;49.138;8.900;2023-03-21T23:44:05;8.27;;;5.40;;
19036;SDS011;9651;49.138;8.900;2023-03-21T23:48:07;7.07;;;5.20;;
19036;SDS011;9651;49.138;8.900;2023-03-21T23:52:09;8.23;;;5.43;;
19036;SDS011;9651;49.138;8.900;2023-03-21T23:56:13;5.17;;;4.40;;
